createdAt,value
2022-11-16T00:03:17.542Z,69.00
2022-11-16T00:08:21.244Z,68.90
2022-11-16T00:13:24.867Z,69.20
2022-11-16T00:18:30.866Z,69.40
2022-11-16T00:23:42.824Z,69.60
2022-11-16T00:28:52.829Z,69.50
2022-11-16T00:33:58.643Z,69.60
2022-11-16T00:39:08.462Z,69.90
2022-11-16T00:44:15.158Z,69.70
2022-11-16T00:49:23.697Z,69.70
2022-11-16T00:54:27.625Z,70.40
2022-11-16T00:59:32.783Z,69.80
2022-11-16T01:04:40.712Z,69.90
2022-11-16T01:09:46.064Z,70.10
2022-11-16T01:14:59.645Z,70.00
2022-11-16T01:20:12.143Z,70.40
2022-11-16T01:25:16.684Z,70.10
2022-11-16T01:30:24.199Z,70.20
2022-11-16T01:35:44.205Z,70.10
2022-11-16T01:40:49.562Z,70.20
2022-11-16T01:45:53.804Z,70.50
2022-11-16T01:51:02.366Z,70.00
2022-11-16T01:56:08.567Z,70.40
2022-11-16T02:01:32.563Z,70.10
2022-11-16T02:06:54.479Z,70.00
2022-11-16T02:12:07.724Z,70.20
2022-11-16T02:17:46.622Z,70.60
2022-11-16T02:23:12.847Z,70.40
2022-11-16T02:28:33.514Z,70.20
2022-11-16T02:33:41.127Z,70.50
2022-11-16T02:39:06.769Z,70.90
2022-11-16T02:44:24.950Z,70.60
2022-11-16T02:49:35.337Z,70.70
2022-11-16T02:54:39.263Z,70.60
2022-11-16T02:59:57.314Z,70.40
2022-11-16T03:05:09.941Z,70.40
2022-11-16T03:10:39.349Z,70.40
2022-11-16T03:15:44.508Z,70.50
2022-11-16T03:20:53.155Z,70.40
2022-11-16T03:25:58.433Z,70.00
2022-11-16T03:31:07.556Z,69.00
2022-11-16T03:36:33.954Z,68.60
2022-11-16T03:41:41.876Z,67.60
2022-11-16T03:46:47.853Z,67.10
2022-11-16T03:51:52.338Z,66.90
2022-11-16T03:56:56.396Z,66.50
2022-11-16T04:02:00.199Z,66.40
2022-11-16T04:07:22.492Z,66.10
2022-11-16T04:12:49.511Z,65.80
2022-11-16T04:18:11.854Z,66.20
2022-11-16T04:23:35.332Z,65.60
2022-11-16T04:28:40.548Z,65.50
2022-11-16T04:34:03.556Z,65.40
2022-11-16T04:39:07.592Z,65.30
2022-11-16T04:44:11.620Z,65.10
2022-11-16T04:49:15.551Z,65.10
2022-11-16T04:54:20.402Z,65.10
2022-11-16T04:59:24.332Z,65.10
2022-11-16T05:04:28.632Z,65.30
2022-11-16T05:09:32.295Z,65.40
2022-11-16T05:14:36.332Z,65.50
2022-11-16T05:19:58.984Z,65.80
2022-11-16T05:25:04.046Z,65.80
2022-11-16T05:30:09.303Z,66.20
2022-11-16T05:35:13.041Z,66.50
2022-11-16T05:40:17.060Z,66.80
2022-11-16T05:45:27.947Z,66.60
2022-11-16T05:50:32.702Z,66.60
2022-11-16T05:55:41.032Z,66.70
2022-11-16T06:00:47.927Z,67.00
2022-11-16T06:05:55.821Z,66.80
2022-11-16T06:11:05.410Z,67.30
2022-11-16T06:16:09.544Z,67.00
2022-11-16T06:21:16.216Z,67.10
2022-11-16T06:26:19.857Z,67.30
2022-11-16T06:31:23.998Z,67.20
2022-11-16T06:36:27.822Z,67.40
2022-11-16T06:41:33.159Z,67.40
2022-11-16T06:46:37.624Z,67.30
2022-11-16T06:51:41.350Z,67.30
2022-11-16T06:56:45.897Z,67.40
2022-11-16T07:01:49.868Z,67.60
2022-11-16T07:06:54.981Z,67.70
2022-11-16T07:11:58.915Z,68.20
2022-11-16T07:17:09.475Z,68.40
2022-11-16T07:22:21.982Z,68.50
2022-11-16T07:27:29.429Z,68.90
2022-11-16T07:32:33.257Z,68.80
2022-11-16T07:37:36.983Z,69.00
2022-11-16T07:42:42.347Z,69.20
2022-11-16T07:47:57.907Z,69.00
2022-11-16T07:53:31.549Z,69.20
2022-11-16T07:58:37.195Z,69.30
2022-11-16T08:03:43.574Z,69.20
2022-11-16T08:08:47.434Z,69.20
2022-11-16T08:13:51.361Z,69.00
2022-11-16T08:18:55.708Z,68.80
